createdAt,value
2023-04-18T00:30:28.745Z,0
2023-04-18T00:35:38.567Z,0
2023-04-18T00:40:48.200Z,0
2023-04-18T00:46:00.730Z,0
2023-04-18T00:51:09.659Z,0
2023-04-18T00:56:18.120Z,0
2023-04-18T01:23:08.446Z,0
2023-04-18T01:28:16.870Z,0
2023-04-18T01:33:25.309Z,0
2023-04-18T01:38:34.420Z,0
2023-04-18T01:43:43.570Z,0
2023-04-18T01:48:53.312Z,0
2023-04-18T01:54:02.442Z,0
2023-04-18T01:59:10.920Z,0
2023-04-18T02:04:20.183Z,0
2023-04-18T02:09:28.531Z,0
2023-04-18T02:14:38.279Z,0
2023-04-18T02:19:48.036Z,0
2023-04-18T02:24:56.527Z,0
2023-04-18T02:30:04.999Z,0
2023-04-18T02:35:14.733Z,0
2023-04-18T02:40:24.536Z,0
2023-04-18T02:45:34.365Z,0
2023-04-18T02:50:44.650Z,0
2023-04-18T02:55:55.072Z,0
2023-04-18T03:01:04.305Z,0
2023-04-18T03:06:13.324Z,0
2023-04-18T03:11:22.527Z,0
2023-04-18T03:16:30.417Z,0
2023-04-18T03:21:40.047Z,0
2023-04-18T03:26:48.520Z,0
2023-04-18T03:31:56.996Z,0
2023-04-18T03:37:06.171Z,0
2023-04-18T03:42:15.858Z,0
2023-04-18T03:47:24.450Z,0
2023-04-18T03:52:33.459Z,0
2023-04-18T03:57:42.606Z,0
2023-04-18T04:02:52.511Z,0
2023-04-18T04:08:02.205Z,1
2023-04-18T04:13:10.586Z,3
2023-04-18T04:18:19.712Z,6
2023-04-18T04:23:29.550Z,15
2023-04-18T04:28:37.964Z,24
2023-04-18T04:33:47.707Z,28
2023-04-18T04:38:56.194Z,41
2023-04-18T04:44:04.674Z,73
2023-04-18T05:30:29.416Z,595
2023-04-18T05:35:37.869Z,721
2023-04-18T05:40:46.928Z,625
2023-04-18T05:45:58.278Z,465
2023-04-18T05:51:06.449Z,449
2023-04-18T05:56:16.193Z,532
2023-04-18T06:01:24.686Z,504
2023-04-18T06:06:33.784Z,429
2023-04-18T06:11:42.274Z,447
2023-04-18T06:16:52.055Z,385
2023-04-18T06:22:00.550Z,472
2023-04-18T06:27:32.131Z,516
2023-04-18T06:32:20.842Z,655
2023-04-18T06:37:30.431Z,605
2023-04-18T06:42:40.203Z,784
2023-04-18T06:47:50.401Z,991
2023-04-18T06:52:57.141Z,674
2023-04-18T06:58:06.893Z,652
2023-04-18T07:03:17.402Z,554
2023-04-18T07:08:26.429Z,623
2023-04-18T07:13:36.229Z,716
2023-04-18T07:18:45.374Z,662
2023-04-18T07:23:54.721Z,631
2023-04-18T07:29:04.194Z,918
2023-04-18T07:34:15.328Z,1064
2023-04-18T07:39:21.840Z,1350
2023-04-18T07:44:30.252Z,1501
2023-04-18T07:49:38.738Z,1233
2023-04-18T07:54:47.247Z,1153
2023-04-18T07:59:55.709Z,1064
2023-04-18T08:05:06.125Z,1239
2023-04-18T08:10:14.587Z,1661
2023-04-18T08:15:24.336Z,1708
2023-04-18T08:20:34.414Z,1456
2023-04-18T08:25:43.947Z,1112
2023-04-18T09:12:06.043Z,976
2023-04-18T09:17:15.704Z,988
2023-04-18T09:22:23.561Z,1167
2023-04-18T09:27:32.699Z,1230
2023-04-18T09:32:41.317Z,1358
2023-04-18T09:37:50.913Z,1474
2023-04-18T09:42:59.399Z,2075
2023-04-18T09:48:08.613Z,1878
2023-04-18T09:53:21.306Z,1798
2023-04-18T09:58:28.692Z,1680
2023-04-18T10:03:38.399Z,1708
2023-04-18T10:08:46.289Z,1713
2023-04-18T10:13:54.741Z,3102
2023-04-18T10:19:03.868Z,2585
2023-04-18T10:24:15.294Z,2983
2023-04-18T10:29:22.767Z,3323
2023-04-18T10:34:32.496Z,3356
2023-04-18T10:39:41.640Z,3455
2023-04-18T10:44:50.757Z,3494
2023-04-18T10:49:59.908Z,4054
2023-04-18T10:55:09.677Z,2560
2023-04-18T11:00:19.396Z,2594
2023-04-18T11:05:29.197Z,3007
2023-04-18T11:10:38.938Z,2901
2023-04-18T11:15:48.050Z,3185
2023-04-18T11:20:57.147Z,3106
2023-04-18T11:26:05.668Z,3150
2023-04-18T11:31:15.422Z,2900
2023-04-18T11:36:24.517Z,3092
2023-04-18T11:41:33.633Z,3007
2023-04-18T11:46:43.371Z,2981
2023-04-18T11:51:51.225Z,2820
2023-04-18T11:57:01.632Z,3743
2023-04-18T12:02:17.543Z,3144
2023-04-18T12:37:58.695Z,2763
2023-04-18T12:43:07.152Z,2921
2023-04-18T12:48:17.461Z,3236
2023-04-18T12:53:26.586Z,3051
2023-04-18T12:58:35.076Z,3001
2023-04-18T13:04:12.763Z,3093
2023-04-18T13:08:54.592Z,2658
2023-04-18T13:14:05.047Z,2613
2023-04-18T13:19:16.267Z,2148
2023-04-18T13:24:24.554Z,1859
2023-04-18T13:29:34.926Z,2754
2023-04-18T13:34:43.404Z,2806
2023-04-18T13:39:51.882Z,1916
2023-04-18T13:45:00.372Z,1995
2023-04-18T13:50:10.427Z,2059
2023-04-18T13:55:19.941Z,2308
2023-04-18T14:00:28.340Z,1862
2023-04-18T14:05:38.742Z,2276
2023-04-18T14:10:48.502Z,1737
2023-04-18T14:15:59.141Z,1580
2023-04-18T14:21:15.719Z,2168
2023-04-18T14:26:26.115Z,2494
2023-04-18T14:31:34.907Z,2188
2023-04-18T14:36:43.713Z,2506
2023-04-18T14:41:54.116Z,1886
2023-04-18T14:47:02.844Z,1915
2023-04-18T14:52:13.010Z,2267
2023-04-18T14:57:22.744Z,1994
2023-04-18T15:02:32.863Z,2171
2023-04-18T15:07:40.348Z,2012
2023-04-18T15:12:52.035Z,2394
2023-04-18T15:18:00.650Z,2207
2023-04-18T15:23:08.974Z,1711
2023-04-18T15:28:18.125Z,1714
2023-04-18T15:33:26.614Z,1567
2023-04-18T15:38:36.352Z,1350
2023-04-18T15:43:45.087Z,1021
2023-04-18T15:48:53.945Z,1188
2023-04-18T16:35:19.310Z,733
2023-04-18T16:40:28.999Z,678
2023-04-18T16:45:38.760Z,662
2023-04-18T16:50:47.224Z,586
2023-04-18T16:55:57.017Z,609
2023-04-18T17:01:06.744Z,588
2023-04-18T17:06:16.519Z,564
2023-04-18T17:11:24.965Z,538
2023-04-18T17:16:35.636Z,511
2023-04-18T17:21:44.533Z,470
2023-04-18T17:26:58.076Z,451
2023-04-18T17:32:04.943Z,440
2023-04-18T17:37:13.122Z,412
2023-04-18T17:42:22.906Z,368
2023-04-18T17:47:32.154Z,342
2023-04-18T17:52:42.428Z,308
2023-04-18T17:57:51.545Z,273
2023-04-18T18:03:01.864Z,227
2023-04-18T18:08:09.144Z,190
2023-04-18T18:13:17.634Z,156
2023-04-18T18:18:26.754Z,121
2023-04-18T18:23:35.890Z,89
2023-04-18T18:28:45.592Z,63
2023-04-18T18:33:56.024Z,42
2023-04-18T18:39:04.504Z,26
2023-04-18T18:44:14.287Z,15
2023-04-18T18:49:22.108Z,7
2023-04-18T18:54:31.841Z,3
2023-04-18T18:59:40.999Z,1
2023-04-18T19:04:49.196Z,0
2023-04-18T19:09:59.260Z,0
2023-04-18T19:15:08.357Z,0
2023-04-18T19:20:18.748Z,0
2023-04-18T19:25:27.239Z,0
2023-04-18T19:30:37.616Z,0
2023-04-18T20:11:51.970Z,0
2023-04-18T20:17:02.346Z,0
2023-04-18T20:22:12.030Z,0
2023-04-18T20:27:21.146Z,0
2023-04-18T20:32:29.786Z,0
2023-04-18T20:37:38.763Z,0
2023-04-18T20:42:48.491Z,0
2023-04-18T20:47:57.164Z,0
2023-04-18T20:53:05.508Z,0
2023-04-18T20:58:15.239Z,0
2023-04-18T21:03:24.381Z,0
2023-04-18T21:08:33.466Z,0
2023-04-18T21:13:44.516Z,0
2023-04-18T21:18:53.602Z,0
2023-04-18T21:24:02.107Z,0
2023-04-18T21:29:11.258Z,0
2023-04-18T21:34:20.356Z,0
2023-04-18T21:39:29.460Z,0
2023-04-18T21:44:37.949Z,0
2023-04-18T21:49:47.067Z,0
2023-04-18T21:54:56.834Z,0
2023-04-18T22:00:10.852Z,0
2023-04-18T22:05:16.393Z,0
2023-04-18T22:10:24.790Z,0
2023-04-18T22:15:33.940Z,0
2023-04-18T22:20:44.351Z,0
2023-04-18T22:25:52.848Z,0
2023-04-18T22:31:03.011Z,0
2023-04-18T22:36:11.667Z,0
2023-04-18T22:41:20.812Z,0
2023-04-18T22:46:30.164Z,0
2023-04-18T22:51:38.449Z,0
2023-04-18T22:56:46.302Z,0
2023-04-18T23:01:56.534Z,0
2023-04-18T23:07:05.783Z,0
2023-04-18T23:12:14.262Z,0
2023-04-18T23:53:26.685Z,0
2023-04-18T23:58:37.751Z,0
